< < Back
Terminal Aerodrome Forecast


Current Version              Previous Versions:   1  2  3  4  5  6  7  8  9  

Terminal Aerodrome Forecast

074
FTUS42 KFFC 292329
TAFCSG
TAF
KCSG 292329Z 3000/3024 21007KT P6SM SCT120
     FM300300 21007KT P6SM BKN050
     FM300500 26009KT P6SM VCSH BKN025 OVC080
     FM300700 32014G20KT P6SM OVC025
     FM301300 33012G17KT P6SM SCT035
     FM301600 34014G23KT P6SM SCT150=

Latest METAR

028
SAUS70 KWBC 302100 RRA
MTRCSG
METAR KCSG 302051Z 01007G16KT 10SM CLR 13/M06 A3027 RMK AO2 SLP247
T01331061 56011


USA.gov is the U.S. government's official web portal to all federal, state and local government web resources and services.